Time;durP1;ratioP1;P1;durP2;ratioP2;P2;SDS_P1;SDS_P2;PMS_P1;PMS_P2;Temp;Humidity;BMP_temperature;BMP_pressure;BME280_temperature;BME280_humidity;BME280_pressure;Samples;Min_cycle;Max_cycle;Signal;HPM_P1;HPM_P2
2023/11/26 11:28:07;;;;;;;7.80;5.27;;;;;;;10.67;55.27;98731.25;8435069;22;20209;-88
2023/11/26 11:40:14;;;;;;;12.33;4.20;;;;;;;11.09;53.79;98752.44;8260048;23;20223;-87
2023/11/26 11:44:25;;;;;;;9.07;4.43;;;;;;;10.85;52.33;98628.97;8273988;23;20267;-90
2023/11/26 11:47:58;;;;;;;6.33;5.33;;;;;;;10.93;53.61;98701.59;8340341;23;20202;-87
2023/11/26 11:56:38;;;;;;;9.80;6.80;;;;;;;10.91;55.92;98763.84;8203269;23;20183;-86
2023/11/26 12:04:50;;;;;;;10.30;5.50;;;;;;;11.31;53.94;98751.97;8299426;23;20316;-87
2023/11/26 12:08:24;;;;;;;8.80;4.90;;;;;;;11.68;53.28;98758.56;8273144;23;20190;-87
2023/11/26 12:36:30;;;;;;;6.37;5.27;;;;;;;11.11;52.71;98690.97;7971300;24;20256;-86
2023/11/26 12:43:52;;;;;;;4.90;3.40;;;;;;;10.44;50.85;98698.50;8026084;24;20180;-90
2023/11/26 12:55:12;;;;;;;5.87;3.23;;;;;;;10.68;49.51;98665.53;8461584;23;20177;-87
2023/11/26 13:06:35;;;;;;;5.17;3.57;;;;;;;11.16;49.86;98710.06;8405828;23;20669;-89
2023/11/26 13:14:25;;;;;;;3.10;2.83;;;;;;;10.53;49.01;98637.97;8413920;23;20222;-90
2023/11/26 13:28:47;;;;;;;2.87;2.53;;;;;;;10.73;49.45;98698.06;8369045;23;20677;-88
2023/11/26 13:32:15;;;;;;;3.43;3.07;;;;;;;10.13;49.49;98647.91;8382536;23;20197;-86
2023/11/26 13:35:46;;;;;;;5.10;2.93;;;;;;;10.46;48.84;98645.22;8381013;23;20176;-87
2023/11/26 13:39:46;;;;;;;4.00;2.90;;;;;;;10.36;48.67;98640.25;8380110;23;20185;-86
2023/11/26 13:43:22;;;;;;;4.57;3.30;;;;;;;10.39;48.70;98631.75;8368942;23;20200;-84
2023/11/26 14:09:36;;;;;;;5.67;3.37;;;;;;;10.85;50.30;98656.78;8657022;22;20641;-85
2023/11/26 14:13:09;;;;;;;9.20;4.63;;;;;;;10.95;49.80;98686.03;8626297;23;20441;-84
2023/11/26 14:16:31;;;;;;;7.67;5.30;;;;;;;11.22;49.47;98695.72;8620010;23;20169;-83
2023/11/26 14:19:58;;;;;;;5.80;4.50;;;;;;;11.14;49.99;98690.53;8620186;23;20197;-85
2023/11/26 14:23:23;;;;;;;4.50;3.30;;;;;;;11.26;48.52;98661.88;8617748;23;20181;-85
2023/11/26 14:26:46;;;;;;;5.43;3.57;;;;;;;11.27;49.05;98687.84;8619445;23;20198;-84
2023/11/26 14:30:11;;;;;;;4.37;3.00;;;;;;;11.02;48.81;98694.94;8633565;23;20686;-84
2023/11/26 14:33:32;;;;;;;8.60;3.47;;;;;;;11.13;48.34;98703.22;8634279;23;20178;-83
2023/11/26 14:36:54;;;;;;;7.83;3.83;;;;;;;10.70;47.97;98661.56;8633923;23;20177;-85
2023/11/26 14:40:17;;;;;;;6.47;3.50;;;;;;;10.69;49.78;98688.78;8660567;22;20185;-83
2023/11/26 14:43:40;;;;;;;4.00;3.30;;;;;;;10.37;49.28;98646.47;8662558;23;20205;-83
2023/11/26 14:47:05;;;;;;;5.13;3.30;;;;;;;10.74;48.85;98670.91;8639509;23;20273;-83
2023/11/26 14:50:27;;;;;;;4.17;3.20;;;;;;;10.84;48.86;98702.84;8632233;23;20204;-83
2023/11/26 14:53:50;;;;;;;3.33;3.03;;;;;;;10.90;48.36;98696.59;8628724;23;20173;-82
2023/11/26 14:57:14;;;;;;;3.30;3.00;;;;;;;10.98;48.34;98699.91;8630812;23;20177;-82
2023/11/26 15:00:37;;;;;;;3.73;3.03;;;;;;;10.61;48.15;98635.03;8630539;23;20285;-83
2023/11/26 15:03:59;;;;;;;8.27;3.97;;;;;;;10.85;48.02;98635.22;8630240;23;20511;-84
2023/11/26 15:07:21;;;;;;;8.27;3.87;;;;;;;11.04;49.08;98712.56;8631598;23;20194;-81
2023/11/26 15:10:43;;;;;;;5.10;3.43;;;;;;;10.60;48.70;98661.19;8631192;23;20245;-83
2023/11/26 15:14:06;;;;;;;3.97;3.40;;;;;;;11.17;48.51;98704.44;8615076;23;20579;-85
2023/11/26 15:17:29;;;;;;;6.43;3.77;;;;;;;10.73;49.73;98704.31;8615751;23;20177;-85
2023/11/26 15:20:50;;;;;;;3.43;3.10;;;;;;;10.85;48.97;98705.34;8630282;23;20202;-83
2023/11/26 15:24:13;;;;;;;4.63;3.10;;;;;;;10.70;49.39;98685.03;8617227;23;20242;-83
2023/11/26 15:27:35;;;;;;;7.50;4.70;;;;;;;10.91;49.75;98704.50;8616853;23;20197;-82
2023/11/26 15:30:57;;;;;;;8.07;4.47;;;;;;;10.65;49.40;98701.00;8617178;23;20209;-84
2023/11/26 15:34:34;;;;;;;6.20;3.63;;;;;;;10.31;49.49;98682.31;8630169;23;20184;-85
2023/11/26 15:37:56;;;;;;;5.57;4.03;;;;;;;10.64;49.89;98696.66;8630462;23;20172;-84
2023/11/26 15:41:19;;;;;;;5.63;4.20;;;;;;;10.28;50.24;98650.41;8632283;23;20203;-85
2023/11/26 15:44:41;;;;;;;7.43;4.73;;;;;;;10.49;49.87;98642.09;8632661;23;20629;-84
2023/11/26 15:48:03;;;;;;;4.60;3.60;;;;;;;10.66;49.89;98689.16;8633366;23;20238;-85
2023/11/26 15:51:26;;;;;;;9.33;6.70;;;;;;;10.29;50.26;98649.38;8619367;23;20528;-84
2023/11/26 15:54:50;;;;;;;9.10;6.17;;;;;;;10.73;50.13;98685.44;8632386;23;20514;-85
2023/11/26 15:58:12;;;;;;;10.70;4.90;;;;;;;10.76;49.33;98623.00;8632095;23;20503;-85
2023/11/26 16:01:34;;;;;;;6.23;3.63;;;;;;;10.51;49.97;98689.38;8632811;23;20193;-85
2023/11/26 16:05:00;;;;;;;3.40;3.10;;;;;;;10.30;50.56;98696.84;8630826;23;20180;-85
2023/11/26 16:08:33;;;;;;;5.60;2.90;;;;;;;10.09;50.03;98646.66;8630180;23;20181;-85
2023/11/26 16:11:55;;;;;;;6.93;3.57;;;;;;;10.12;49.99;98677.75;8630120;23;20197;-84
2023/11/26 16:15:17;;;;;;;3.20;2.63;;;;;;;10.35;48.84;98608.97;8633954;23;20208;-83
2023/11/26 16:18:42;;;;;;;7.87;3.10;;;;;;;10.66;48.84;98689.16;8622114;23;20256;-88
2023/11/26 16:22:04;;;;;;;10.17;7.07;;;;;;;10.03;49.53;98617.84;8619054;23;20200;-86
2023/11/26 16:25:31;;;;;;;6.63;5.60;;;;;;;10.57;49.52;98672.38;8630324;23;20204;-86
2023/11/26 16:28:53;;;;;;;4.00;3.30;;;;;;;10.80;49.18;98698.94;8638699;23;20180;-88
2023/11/26 16:32:15;;;;;;;4.83;3.43;;;;;;;10.31;49.72;98655.38;8640637;23;20536;-88
2023/11/26 16:35:37;;;;;;;3.50;2.90;;;;;;;9.54;50.93;98613.81;8630983;23;20184;-87
2023/11/26 16:38:59;;;;;;;3.03;2.67;;;;;;;9.92;51.48;98690.34;8637676;23;20769;-88
2023/11/26 16:42:22;;;;;;;5.90;4.17;;;;;;;9.94;51.25;98675.63;8629405;23;20208;-85
2023/11/26 16:45:43;;;;;;;4.33;2.97;;;;;;;9.93;51.10;98687.41;8623320;23;20215;-87
2023/11/26 16:49:05;;;;;;;3.97;3.10;;;;;;;9.94;51.59;98699.03;8626634;23;20499;-89
2023/11/26 16:52:27;;;;;;;5.03;3.30;;;;;;;9.98;51.45;98692.22;8640854;23;20197;-88
2023/11/26 16:55:48;;;;;;;5.00;3.53;;;;;;;9.32;52.67;98631.13;8627988;23;20236;-88
2023/11/26 16:59:12;;;;;;;3.80;3.10;;;;;;;9.47;51.89;98639.88;8636258;23;20177;-88
2023/11/26 17:02:34;;;;;;;4.67;3.10;;;;;;;9.01;52.33;98597.69;8636244;23;20261;-88
2023/11/26 17:05:56;;;;;;;3.87;3.30;;;;;;;9.17;53.34;98687.75;8625352;23;20655;-88
2023/11/26 17:09:17;;;;;;;6.77;4.73;;;;;;;9.64;52.69;98693.13;8640628;23;20253;-88
2023/11/26 17:12:39;;;;;;;4.03;3.30;;;;;;;8.64;53.74;98624.97;8639735;23;20196;-88
2023/11/26 17:16:02;;;;;;;4.43;3.60;;;;;;;8.83;54.83;98668.09;8626377;23;20181;-88
2023/11/26 17:19:25;;;;;;;4.13;3.40;;;;;;;8.58;54.70;98615.84;8637424;23;20261;-87
2023/11/26 17:22:50;;;;;;;5.53;3.53;;;;;;;9.43;53.35;98668.22;8640934;23;20200;-87
2023/11/26 17:26:12;;;;;;;4.03;3.20;;;;;;;9.35;54.05;98687.22;8633568;23;20194;-90
2023/11/26 17:29:33;;;;;;;5.47;3.83;;;;;;;9.15;54.38;98672.84;8617159;23;20189;-89
2023/11/26 17:32:56;;;;;;;4.03;3.07;;;;;;;9.17;54.54;98676.97;8631811;23;20170;-90
2023/11/26 17:36:18;;;;;;;4.43;3.10;;;;;;;9.75;53.29;98679.09;8622940;23;20187;-87
2023/11/26 17:39:41;;;;;;;4.70;3.27;;;;;;;9.47;53.43;98670.31;8643441;23;20566;-88
2023/11/26 17:43:06;;;;;;;6.97;3.30;;;;;;;8.93;54.06;98630.94;8642039;23;20177;-87
2023/11/26 17:46:27;;;;;;;3.27;2.97;;;;;;;9.27;52.53;98579.81;8638595;23;20217;-89
2023/11/26 17:49:50;;;;;;;4.53;3.30;;;;;;;9.52;52.45;98642.78;8645061;23;20181;-90
2023/11/26 17:53:15;;;;;;;3.43;2.90;;;;;;;9.61;52.22;98646.94;8631887;23;20499;-87
2023/11/26 17:56:37;;;;;;;4.77;3.40;;;;;;;9.11;54.24;98660.81;8640648;23;20172;-92
2023/11/26 18:00:00;;;;;;;3.17;2.97;;;;;;;9.13;53.64;98637.25;8644030;23;20217;-90
2023/11/26 18:03:42;;;;;;;3.53;3.23;;;;;;;9.38;53.27;98623.06;8651188;23;20188;-89
2023/11/26 18:07:45;;;;;;;3.63;3.40;;;;;;;9.33;54.39;98683.91;8649046;23;20212;-90
2023/11/26 18:15:23;;;;;;;4.57;3.03;;;;;;;9.24;53.55;98623.22;8478292;23;20169;-90
2023/11/26 18:18:45;;;;;;;3.10;2.90;;;;;;;9.60;53.97;98678.44;8478073;23;20187;-92
2023/11/26 18:22:07;;;;;;;3.57;2.83;;;;;;;8.99;54.16;98622.91;8469636;23;20199;-92
2023/11/26 18:25:30;;;;;;;5.70;3.20;;;;;;;9.26;55.23;98674.97;8453169;23;20214;-91
2023/11/26 18:29:09;;;;;;;3.73;3.00;;;;;;;9.71;54.57;98672.47;8466557;23;20183;-89
2023/11/26 19:08:55;;;;;;;4.17;3.57;;;;;;;9.62;54.44;98672.84;8364538;23;20204;-88
2023/11/26 19:12:46;;;;;;;5.57;4.00;;;;;;;9.65;54.02;98667.91;8387893;23;20214;-89
2023/11/26 19:16:15;;;;;;;5.10;3.57;;;;;;;9.62;54.03;98665.59;8465228;23;20233;-88
2023/11/26 19:19:38;;;;;;;3.63;3.33;;;;;;;9.57;54.52;98643.03;8571969;23;20184;-88
2023/11/26 19:23:14;;;;;;;4.17;3.77;;;;;;;9.70;53.79;98676.16;8587484;23;20187;-88
2023/11/26 19:26:36;;;;;;;8.27;6.37;;;;;;;9.64;53.90;98668.91;8602092;23;20188;-88
2023/11/26 19:29:59;;;;;;;5.70;4.53;;;;;;;9.45;53.77;98639.25;8601719;23;20212;-88
2023/11/26 19:33:21;;;;;;;4.33;3.50;;;;;;;9.22;53.43;98588.44;8601439;23;20177;-88
2023/11/26 19:36:43;;;;;;;5.67;3.20;;;;;;;9.73;53.79;98675.78;8602230;23;20175;-89
2023/11/26 19:40:09;;;;;;;4.47;3.33;;;;;;;9.67;53.84;98673.06;8604361;23;20550;-88
2023/11/26 19:43:30;;;;;;;3.63;3.33;;;;;;;9.92;53.52;98683.06;8592441;23;20684;-88
2023/11/26 19:46:55;;;;;;;4.00;3.70;;;;;;;9.87;53.23;98680.16;8589298;23;20285;-90
2023/11/26 19:50:17;;;;;;;12.97;3.83;;;;;;;9.55;52.87;98635.13;8598511;23;20193;-90
2023/11/26 19:53:39;;;;;;;4.00;3.60;;;;;;;9.74;53.99;98682.00;8579924;23;20181;-89
2023/11/26 19:57:04;;;;;;;3.67;3.33;;;;;;;9.77;53.88;98685.13;8591566;23;20174;-88
2023/11/26 20:00:25;;;;;;;4.93;3.77;;;;;;;9.53;54.71;98666.81;8594848;23;20677;-89
2023/11/26 20:03:50;;;;;;;3.97;3.67;;;;;;;10.15;53.01;98663.88;8578433;23;20180;-89
2023/11/26 20:07:12;;;;;;;4.60;3.60;;;;;;;10.32;52.06;98684.81;8591733;23;20216;-88
2023/11/26 20:10:33;;;;;;;5.93;3.53;;;;;;;9.83;53.66;98678.91;8580754;23;20205;-89
2023/11/26 20:13:58;;;;;;;4.13;3.43;;;;;;;9.95;54.03;98671.06;8616842;23;20195;-89
2023/11/26 20:17:19;;;;;;;3.87;3.23;;;;;;;9.87;53.51;98674.75;8635315;23;20178;-89
2023/11/26 20:20:42;;;;;;;3.40;3.03;;;;;;;10.07;52.73;98662.22;8635408;23;20255;-89
2023/11/26 20:24:06;;;;;;;5.13;4.20;;;;;;;9.66;53.18;98639.94;8636970;23;20179;-89
2023/11/26 20:27:27;;;;;;;8.30;5.50;;;;;;;9.78;53.80;98675.16;8622061;23;20208;-88
2023/11/26 20:30:53;;;;;;;10.63;7.10;;;;;;;9.39;54.47;98615.84;8624436;23;20206;-90
2023/11/26 20:34:15;;;;;;;3.70;3.40;;;;;;;9.19;55.09;98658.81;8624782;23;20186;-88
2023/11/26 20:37:38;;;;;;;4.63;4.23;;;;;;;9.56;54.65;98652.13;8640559;23;20819;-89
2023/11/26 20:40:59;;;;;;;3.43;3.13;;;;;;;9.71;53.36;98609.72;8643393;23;20204;-90
2023/11/26 20:44:24;;;;;;;5.03;3.70;;;;;;;9.43;54.06;98603.63;8628605;23;20251;-92
2023/11/26 20:47:46;;;;;;;3.80;3.43;;;;;;;9.75;54.10;98657.53;8631186;23;20213;-92
2023/11/26 20:51:41;;;;;;;6.37;4.83;;;;;;;9.55;55.02;98656.66;8631459;23;20201;-90
2023/11/26 20:55:35;;;;;;;6.77;5.07;;;;;;;9.70;54.24;98646.56;8592921;23;20180;-90
2023/11/26 21:02:59;;;;;;;3.90;3.60;;;;;;;9.58;54.34;98601.59;8557559;23;20238;-90
2023/11/26 21:10:00;;;;;;;4.30;3.87;;;;;;;9.51;54.00;98544.25;8582248;23;20198;-88
2023/11/26 21:13:23;;;;;;;7.67;5.10;;;;;;;10.19;53.83;98635.47;8614356;23;20190;-90
2023/11/26 21:16:46;;;;;;;6.70;5.03;;;;;;;9.39;54.34;98552.09;8594856;23;20185;-90
2023/11/26 21:23:48;;;;;;;6.63;4.40;;;;;;;9.17;53.74;98520.19;8602098;23;20176;-89
2023/11/26 21:27:10;;;;;;;4.30;4.00;;;;;;;9.89;52.83;98586.56;8583979;23;20201;-89
2023/11/26 21:30:36;;;;;;;3.63;3.03;;;;;;;9.76;52.78;98623.38;8586355;23;20226;-90
2023/11/26 21:33:58;;;;;;;3.50;3.20;;;;;;;9.36;54.14;98574.03;8603227;23;20184;-90
2023/11/26 21:37:20;;;;;;;3.47;3.17;;;;;;;9.95;53.36;98591.09;8600688;23;20235;-90
2023/11/26 21:40:43;;;;;;;3.40;3.10;;;;;;;9.39;53.82;98537.81;8589019;23;20210;-90
2023/11/26 21:44:05;;;;;;;3.60;3.30;;;;;;;9.66;53.55;98607.63;8602003;23;20175;-90
2023/11/26 21:47:29;;;;;;;3.50;3.20;;;;;;;9.69;54.40;98611.78;8587562;23;20236;-90
2023/11/26 21:50:51;;;;;;;3.07;2.80;;;;;;;9.18;53.64;98495.78;8603078;23;20196;-87
2023/11/26 21:54:12;;;;;;;4.17;2.97;;;;;;;9.99;52.74;98591.53;8587401;23;20570;-89
2023/11/26 21:58:01;;;;;;;;;;;;;;;;;;;;;
2023/11/26 22:14:46;;;;;;;6.13;4.00;;;;;;;9.90;52.72;98568.50;8595657;23;20560;-89
2023/11/26 22:18:08;;;;;;;3.80;3.40;;;;;;;9.69;52.43;98534.53;8458882;23;20626;-91
2023/11/26 22:21:31;;;;;;;4.07;3.47;;;;;;;9.37;52.78;98504.88;8605815;23;20197;-91
2023/11/26 22:24:55;;;;;;;4.63;3.70;;;;;;;9.67;52.36;98565.38;8595883;23;20182;-92
2023/11/26 22:28:17;;;;;;;4.13;3.70;;;;;;;9.79;52.62;98536.81;8594741;23;20205;-92
2023/11/26 22:31:38;;;;;;;6.40;3.67;;;;;;;9.89;52.78;98558.78;8594795;23;20691;-91
2023/11/26 22:35:00;;;;;;;3.83;3.40;;;;;;;9.68;52.76;98502.47;8588586;23;20220;-92
2023/11/26 22:47:44;;;;;;;3.70;3.40;;;;;;;9.59;53.58;98546.75;8551712;23;20247;-91
2023/11/26 22:51:07;;;;;;;4.30;3.90;;;;;;;9.57;53.49;98549.63;8582128;23;20219;-92
2023/11/26 22:54:29;;;;;;;3.80;3.50;;;;;;;9.51;53.13;98547.75;8594546;23;20188;-92
2023/11/26 22:57:50;;;;;;;4.47;3.60;;;;;;;9.70;52.95;98535.38;8595629;23;20188;-92
2023/11/26 23:01:12;;;;;;;6.03;3.93;;;;;;;9.30;52.61;98450.25;8592306;23;20204;-92
2023/11/26 23:04:34;;;;;;;4.50;3.63;;;;;;;9.56;53.24;98528.34;8593385;23;20614;-92
2023/11/26 23:07:57;;;;;;;4.00;3.67;;;;;;;9.50;53.57;98545.28;8593511;23;20525;-92
2023/11/26 23:16:22;;;;;;;4.00;3.60;;;;;;;9.27;54.40;98534.88;8555108;23;20181;-90
2023/11/26 23:41:34;;;;;;;4.23;3.87;;;;;;;9.16;54.97;98510.44;8205223;24;20292;-91
2023/11/26 23:49:53;;;;;;;5.00;4.50;;;;;;;9.20;55.04;98506.31;8171093;24;20248;-90
